createdAt,value
2023-03-02T00:07:07.723Z,26.55
2023-03-02T00:08:07.759Z,26.61
2023-03-02T00:09:07.788Z,26.57
2023-03-02T00:10:07.861Z,26.60
2023-03-02T00:11:07.900Z,26.55
2023-03-02T00:12:07.954Z,26.57
2023-03-02T00:13:08.003Z,26.57
2023-03-02T00:14:08.052Z,26.55
2023-03-02T00:15:08.087Z,26.57
2023-03-02T00:16:08.315Z,26.60
2023-03-02T00:17:08.216Z,26.57
2023-03-02T00:18:08.245Z,26.54
2023-03-02T00:19:08.364Z,26.52
2023-03-02T00:20:08.349Z,26.53
2023-03-02T00:21:08.399Z,26.58
2023-03-02T00:22:10.142Z,26.54
2023-03-02T00:23:08.532Z,26.57
2023-03-02T00:24:08.558Z,26.53
2023-03-02T00:25:08.616Z,26.55
2023-03-02T00:26:08.624Z,26.58
2023-03-02T00:27:08.732Z,26.52
2023-03-02T00:28:08.670Z,26.53
2023-03-02T00:29:08.725Z,26.51
2023-03-02T00:30:08.775Z,26.49
2023-03-02T00:31:08.865Z,26.54
2023-03-02T00:32:08.910Z,26.51
2023-03-02T00:33:08.948Z,26.57
2023-03-02T00:34:09.003Z,26.58
2023-03-02T00:35:09.073Z,26.55
2023-03-02T00:36:09.133Z,26.54
2023-03-02T00:37:09.163Z,26.54
2023-03-02T00:38:09.237Z,26.49
2023-03-02T00:39:09.256Z,26.58
2023-03-02T00:40:09.270Z,26.57
2023-03-02T00:41:09.272Z,26.51
2023-03-02T00:42:09.262Z,26.50
2023-03-02T00:43:09.281Z,26.52
2023-03-02T00:44:09.307Z,26.57
2023-03-02T00:45:09.371Z,26.54
2023-03-02T00:46:09.408Z,26.54
2023-03-02T00:47:09.426Z,26.52
2023-03-02T00:48:09.476Z,26.55
2023-03-02T00:49:09.518Z,26.53
2023-03-02T00:50:09.583Z,26.47
2023-03-02T00:51:09.609Z,26.53
2023-03-02T00:52:09.651Z,26.50
2023-03-02T00:53:09.682Z,26.54
2023-03-02T00:54:09.731Z,26.53
2023-03-02T00:55:09.797Z,26.49
2023-03-02T00:56:09.866Z,26.53
2023-03-02T00:57:09.931Z,26.49
2023-03-02T00:58:09.944Z,26.54
2023-03-02T00:59:09.954Z,26.54
2023-03-02T01:00:09.954Z,26.50
2023-03-02T01:01:09.976Z,26.49
2023-03-02T01:02:10.060Z,26.47
2023-03-02T01:03:10.131Z,26.54
2023-03-02T01:04:10.136Z,26.52
2023-03-02T01:05:10.187Z,26.50
2023-03-02T01:06:10.244Z,26.50
2023-03-02T01:07:10.297Z,26.49
2023-03-02T01:08:10.351Z,26.49
2023-03-02T01:09:10.403Z,26.52
2023-03-02T01:10:10.437Z,26.47
2023-03-02T01:11:10.628Z,26.51
2023-03-02T01:12:10.555Z,26.50
2023-03-02T01:13:10.608Z,26.49
2023-03-02T01:14:10.661Z,26.52
2023-03-02T01:15:10.686Z,26.51
2023-03-02T01:16:10.752Z,26.52
2023-03-02T01:17:10.734Z,26.44
2023-03-02T01:18:12.128Z,26.44
2023-03-02T01:19:10.848Z,26.47
2023-03-02T01:20:10.913Z,26.49
2023-03-02T01:21:10.960Z,26.44
2023-03-02T01:22:11.032Z,26.46
2023-03-02T01:23:11.084Z,26.46
2023-03-02T01:24:11.144Z,26.46
2023-03-02T01:25:11.201Z,26.49
2023-03-02T01:26:11.234Z,26.50
2023-03-02T01:27:11.296Z,26.45
2023-03-02T01:28:11.330Z,26.49
2023-03-02T01:29:11.401Z,26.44
2023-03-02T01:30:11.441Z,26.44
2023-03-02T01:31:11.524Z,26.46
2023-03-02T01:32:11.610Z,26.49
2023-03-02T01:33:11.614Z,26.47
2023-03-02T01:34:11.678Z,26.49
2023-03-02T01:35:11.714Z,26.47
2023-03-02T01:36:11.774Z,26.40
2023-03-02T01:37:11.825Z,26.43
2023-03-02T01:38:12.005Z,26.43
2023-03-02T01:39:11.955Z,26.47
2023-03-02T01:40:12.017Z,26.43
2023-03-02T01:41:12.072Z,26.41
2023-03-02T01:42:12.125Z,26.43
2023-03-02T01:43:12.172Z,26.44
2023-03-02T01:44:12.196Z,26.47
2023-03-02T01:45:12.255Z,26.46
2023-03-02T01:46:12.389Z,26.43
2023-03-02T01:47:12.344Z,26.41
2023-03-02T01:48:12.383Z,26.44
2023-03-02T01:49:12.365Z,26.46
2023-03-02T01:50:12.396Z,26.44
2023-03-02T01:51:12.424Z,26.37
2023-03-02T01:52:12.455Z,26.46
2023-03-02T01:53:12.477Z,26.44
2023-03-02T01:54:12.504Z,26.41
2023-03-02T01:55:12.532Z,26.43
2023-03-02T01:56:12.569Z,26.41
2023-03-02T01:57:12.600Z,26.43
2023-03-02T01:58:12.639Z,26.49
2023-03-02T01:59:12.703Z,26.44
2023-03-02T02:00:12.761Z,26.40
2023-03-02T02:01:12.868Z,26.43
2023-03-02T02:02:12.893Z,26.44
2023-03-02T02:03:12.951Z,26.37
2023-03-02T02:04:13.103Z,26.47
2023-03-02T02:05:13.079Z,26.40
2023-03-02T02:06:13.149Z,26.47
2023-03-02T02:07:13.214Z,26.41
2023-03-02T02:08:13.280Z,26.37
2023-03-02T02:09:13.353Z,26.44
2023-03-02T02:10:13.442Z,26.46
2023-03-02T02:11:13.456Z,26.41
2023-03-02T02:12:13.527Z,26.49
2023-03-02T02:13:13.580Z,26.40
2023-03-02T02:14:13.663Z,26.40
2023-03-02T02:15:13.707Z,26.40
2023-03-02T02:16:13.828Z,26.40
2023-03-02T02:17:13.828Z,26.40
2023-03-02T02:18:13.871Z,26.43
2023-03-02T02:19:13.921Z,26.39
2023-03-02T02:20:13.979Z,26.36
2023-03-02T02:21:14.039Z,26.39
2023-03-02T02:22:14.080Z,26.40
2023-03-02T02:23:14.130Z,26.43
2023-03-02T02:24:14.182Z,26.39
2023-03-02T02:25:14.229Z,26.43
2023-03-02T02:26:14.275Z,26.39
2023-03-02T02:27:14.327Z,26.41
2023-03-02T02:28:14.373Z,26.39
2023-03-02T02:29:14.419Z,26.36
2023-03-02T02:30:14.482Z,26.39
2023-03-02T02:31:14.587Z,26.35
2023-03-02T02:32:14.746Z,26.39
2023-03-02T02:33:14.671Z,26.39
2023-03-02T02:34:14.736Z,26.40
2023-03-02T02:35:14.800Z,26.40
2023-03-02T02:36:14.854Z,26.39
2023-03-02T02:37:14.901Z,26.40
2023-03-02T02:38:14.950Z,26.39
2023-03-02T02:39:15.005Z,26.38
2023-03-02T02:40:15.057Z,26.33
2023-03-02T03:44:17.741Z,26.26
2023-03-02T03:45:17.773Z,26.29
2023-03-02T03:46:17.884Z,26.26
2023-03-02T03:47:17.844Z,26.26
2023-03-02T03:48:17.837Z,26.24
2023-03-02T03:50:17.851Z,26.27
2023-03-02T03:51:17.862Z,26.25
2023-03-02T03:52:17.904Z,26.26
2023-03-02T03:53:17.925Z,26.22
2023-03-02T03:54:17.966Z,26.26
2023-03-02T03:55:17.979Z,26.29
2023-03-02T03:56:17.990Z,26.26
2023-03-02T03:57:17.983Z,26.26
2023-03-02T03:58:18.074Z,26.22
2023-03-02T03:59:18.050Z,26.28
2023-03-02T04:00:18.100Z,26.25
2023-03-02T04:01:18.189Z,26.26
2023-03-02T04:02:18.210Z,26.23
2023-03-02T04:03:18.224Z,26.24
2023-03-02T04:04:18.257Z,26.24
2023-03-02T04:05:18.313Z,26.22
2023-03-02T04:06:18.356Z,26.21
2023-03-02T04:07:18.386Z,26.27
2023-03-02T04:08:18.403Z,26.28
2023-03-02T04:09:18.435Z,26.27
2023-03-02T04:10:18.452Z,26.27
2023-03-02T04:11:18.459Z,26.28
2023-03-02T04:12:18.493Z,26.28
2023-03-02T04:13:18.544Z,26.25
2023-03-02T04:14:18.697Z,26.28
2023-03-02T04:15:18.660Z,26.28
2023-03-02T04:16:18.762Z,26.22
2023-03-02T04:17:18.759Z,26.25
2023-03-02T04:18:18.801Z,26.23
2023-03-02T04:19:18.860Z,26.20
2023-03-02T04:20:18.928Z,26.23
2023-03-02T04:21:18.987Z,26.20
2023-03-02T04:22:19.042Z,26.21
2023-03-02T04:23:19.100Z,26.20
2023-03-02T04:24:19.157Z,26.19
2023-03-02T04:25:19.208Z,26.20
2023-03-02T04:26:19.266Z,26.17
2023-03-02T04:27:19.316Z,26.20
2023-03-02T07:38:27.861Z,30.97
2023-03-02T10:20:25.212Z,32.36
2023-03-02T10:26:25.079Z,32.07
2023-03-02T10:32:25.014Z,31.90
2023-03-02T10:33:24.972Z,31.87
2023-03-02T10:34:24.949Z,31.81
2023-03-02T10:35:24.994Z,31.81
2023-03-02T10:36:24.920Z,31.77
2023-03-02T10:37:24.914Z,31.80
2023-03-02T10:38:24.855Z,31.75
2023-03-02T10:39:24.836Z,31.72
2023-03-02T10:40:24.836Z,31.65
2023-03-02T10:41:24.768Z,31.63
2023-03-02T10:42:24.784Z,31.59
2023-03-02T10:43:24.734Z,31.59
2023-03-02T10:44:24.709Z,31.54
2023-03-02T10:45:24.672Z,31.55
2023-03-02T10:46:24.721Z,31.52
2023-03-02T10:47:24.640Z,31.48
2023-03-02T10:48:24.609Z,31.47
2023-03-02T10:49:24.586Z,31.46
2023-03-02T10:50:24.560Z,31.43
2023-03-02T10:51:24.581Z,31.43
2023-03-02T10:52:24.543Z,31.37
2023-03-02T10:53:24.501Z,31.34
2023-03-02T10:54:24.470Z,31.37
2023-03-02T10:55:24.439Z,31.36
2023-03-02T10:56:24.418Z,31.29
2023-03-02T10:57:24.407Z,31.32
2023-03-02T10:58:24.389Z,31.27
2023-03-02T10:59:24.362Z,31.30
2023-03-02T11:00:24.404Z,31.15
2023-03-02T11:01:24.351Z,26.81
2023-03-02T11:02:24.309Z,23.93
2023-03-02T11:03:24.282Z,22.96
2023-03-02T11:04:24.315Z,22.23
2023-03-02T11:05:24.260Z,22.37
2023-03-02T11:06:24.245Z,22.23
2023-03-02T11:07:24.241Z,22.25
2023-03-02T11:08:24.221Z,22.01
2023-03-02T11:09:24.212Z,22.64
2023-03-02T11:11:24.233Z,22.22
2023-03-02T11:12:24.226Z,22.44
2023-03-02T13:08:28.046Z,30.94
2023-03-02T13:11:27.978Z,31.31
2023-03-02T13:27:28.539Z,32.56
2023-03-02T13:28:27.732Z,32.57
2023-03-02T13:29:27.770Z,32.71
2023-03-02T13:30:28.014Z,32.85
2023-03-02T13:31:27.914Z,32.94
2023-03-02T13:32:27.977Z,32.99
2023-03-02T13:33:27.865Z,33.04
2023-03-02T13:34:27.891Z,33.17
2023-03-02T13:35:27.916Z,33.26
2023-03-02T13:36:27.928Z,33.23
2023-03-02T13:37:27.966Z,33.23
2023-03-02T13:38:27.969Z,33.12
2023-03-02T13:39:28.987Z,33.51
2023-03-02T13:40:28.021Z,33.50
2023-03-02T13:41:28.033Z,33.57
2023-03-02T13:42:28.054Z,33.72
2023-03-02T13:43:28.065Z,33.80
2023-03-02T13:44:28.084Z,33.85
2023-03-02T13:45:28.118Z,33.92
2023-03-02T13:46:28.187Z,33.98
2023-03-02T13:47:28.136Z,34.07
2023-03-02T13:48:28.157Z,34.18
2023-03-02T13:49:28.185Z,34.29
2023-03-02T13:50:28.262Z,34.46
2023-03-02T13:51:28.188Z,34.43
2023-03-02T13:52:28.213Z,34.49
2023-03-02T13:53:28.202Z,34.55
2023-03-02T13:54:28.217Z,34.64
2023-03-02T13:55:28.233Z,34.71
2023-03-02T13:56:28.231Z,34.80
2023-03-02T13:57:30.587Z,34.92
2023-03-02T13:58:28.259Z,35.03
2023-03-02T13:59:28.277Z,35.12
2023-03-02T14:00:28.288Z,35.12
2023-03-02T14:01:28.388Z,35.25
2023-03-02T14:02:28.323Z,35.30
2023-03-02T14:03:28.340Z,35.46
2023-03-02T14:04:28.423Z,35.46
2023-03-02T14:05:28.389Z,35.48
2023-03-02T14:06:28.350Z,35.32
2023-03-02T14:07:28.372Z,35.32
2023-03-02T14:08:28.389Z,35.25
2023-03-02T14:09:28.414Z,35.06
2023-03-02T14:10:28.425Z,35.00
2023-03-02T14:11:28.418Z,34.98
2023-03-02T14:12:28.443Z,34.73
2023-03-02T14:24:28.653Z,35.26
2023-03-02T14:26:28.704Z,35.26
2023-03-02T14:27:28.706Z,35.32
2023-03-02T14:28:28.726Z,35.37
2023-03-02T14:29:28.731Z,35.58
2023-03-02T14:30:28.741Z,35.77
2023-03-02T14:31:28.780Z,35.67
2023-03-02T14:32:28.761Z,35.67
2023-03-02T14:33:28.781Z,35.74
2023-03-02T14:34:28.798Z,35.94
2023-03-02T14:35:28.807Z,36.24
2023-03-02T14:36:28.804Z,36.15
2023-03-02T14:37:28.816Z,36.22
2023-03-02T14:38:28.945Z,36.06
2023-03-02T14:39:28.819Z,35.99
2023-03-02T14:40:28.858Z,35.89
2023-03-02T14:41:28.866Z,35.84
2023-03-02T14:42:28.870Z,35.83
2023-03-02T14:43:28.916Z,35.83
2023-03-02T14:44:28.905Z,35.75
2023-03-02T14:45:30.861Z,35.77
2023-03-02T14:46:28.991Z,35.82
2023-03-02T14:47:28.969Z,35.81
2023-03-02T14:48:28.987Z,35.82
2023-03-02T14:49:29.002Z,35.79
2023-03-02T14:50:29.030Z,35.82
2023-03-02T14:51:29.038Z,35.81
2023-03-02T14:52:29.054Z,35.81
2023-03-02T14:53:29.081Z,35.88
2023-03-02T14:54:29.092Z,35.90
2023-03-02T14:55:29.119Z,35.92
2023-03-02T14:56:29.143Z,35.89
2023-03-02T14:57:29.171Z,35.92
2023-03-02T14:58:29.183Z,35.96
2023-03-02T14:59:29.202Z,35.98
2023-03-02T15:00:29.228Z,35.98
2023-03-02T15:01:29.284Z,35.99
2023-03-02T15:02:29.337Z,36.03
2023-03-02T15:03:29.360Z,36.02
2023-03-02T15:04:29.309Z,36.08
2023-03-02T15:05:29.332Z,36.10
2023-03-02T15:06:29.359Z,36.14
2023-03-02T15:07:29.383Z,36.08
2023-03-02T15:08:29.420Z,36.10
2023-03-02T15:09:29.503Z,36.08
2023-03-02T15:10:29.466Z,36.09
2023-03-02T15:11:29.500Z,36.09
2023-03-02T15:12:29.512Z,36.07
2023-03-02T15:13:29.546Z,36.04
2023-03-02T15:14:29.566Z,36.02
2023-03-02T15:15:29.583Z,35.99
2023-03-02T15:16:29.649Z,35.98
2023-03-02T15:17:29.627Z,35.98
2023-03-02T15:18:29.657Z,35.95
2023-03-02T15:19:29.703Z,35.98
2023-03-02T15:20:29.730Z,35.94
2023-03-02T15:21:29.757Z,35.98
2023-03-02T15:22:29.777Z,35.95
2023-03-02T15:23:29.796Z,35.87
2023-03-02T15:24:32.065Z,35.89
2023-03-02T15:25:29.799Z,35.93
2023-03-02T15:26:29.798Z,35.90
2023-03-02T15:27:29.765Z,35.87
2023-03-02T15:28:29.737Z,35.87
2023-03-02T15:29:29.722Z,35.87
2023-03-02T15:30:29.696Z,35.91
2023-03-02T15:31:29.702Z,35.86
2023-03-02T15:32:29.702Z,35.82
2023-03-02T15:33:29.632Z,35.82
2023-03-02T15:34:29.620Z,35.78
2023-03-02T15:35:29.744Z,35.78
2023-03-02T15:36:29.569Z,35.79
2023-03-02T15:37:29.557Z,35.79
2023-03-02T15:38:29.531Z,35.79
2023-03-02T15:39:29.507Z,35.79
2023-03-02T15:40:29.485Z,35.78
2023-03-02T15:41:29.453Z,35.75
2023-03-02T15:42:29.444Z,35.72
2023-03-02T15:43:29.434Z,35.66
2023-03-02T15:44:29.401Z,35.66
2023-03-02T15:45:29.358Z,35.69
2023-03-02T15:46:29.389Z,35.68
2023-03-02T15:47:29.328Z,35.67
2023-03-02T15:48:29.306Z,35.62
2023-03-02T15:49:29.316Z,35.63
2023-03-02T15:50:29.253Z,35.60
2023-03-02T15:51:29.227Z,35.63
2023-03-02T15:52:29.208Z,35.60
2023-03-02T15:53:29.175Z,35.57
2023-03-02T15:54:29.150Z,35.54
2023-03-02T15:55:29.149Z,35.60
2023-03-02T15:56:38.836Z,35.51
2023-03-02T15:57:30.099Z,35.54
2023-03-02T15:58:29.074Z,35.53
2023-03-02T16:56:30.451Z,34.92
2023-03-02T17:14:30.601Z,34.71
2023-03-02T17:19:19.636Z,34.71
2023-03-02T17:20:19.712Z,34.66
2023-03-02T17:21:19.764Z,34.67
2023-03-02T17:22:19.837Z,34.65
2023-03-02T17:23:19.906Z,34.65
2023-03-02T17:24:19.946Z,34.62
2023-03-02T17:25:19.953Z,34.63
2023-03-02T17:26:19.978Z,34.63
2023-03-02T17:27:25.368Z,34.67
2023-03-02T17:28:21.041Z,34.59
2023-03-02T17:29:20.070Z,34.61
2023-03-02T17:30:20.097Z,34.60
2023-03-02T17:31:20.113Z,34.58
2023-03-02T17:32:20.176Z,34.59
2023-03-02T17:33:20.135Z,34.55
2023-03-02T17:34:20.142Z,34.50
2023-03-02T17:35:20.168Z,34.55
2023-03-02T17:36:20.212Z,34.55
2023-03-02T17:37:20.182Z,34.62
2023-03-02T17:38:20.198Z,34.58
2023-03-02T17:39:20.209Z,34.59
2023-03-02T17:40:20.214Z,34.56
2023-03-02T17:41:20.233Z,34.56
2023-03-02T17:42:20.242Z,34.56
2023-03-02T17:43:20.248Z,34.59
2023-03-02T17:44:20.276Z,34.63
2023-03-02T17:45:20.300Z,34.61
2023-03-02T17:46:20.459Z,34.63
2023-03-02T17:47:20.313Z,34.63
2023-03-02T17:48:20.349Z,34.58
2023-03-02T17:49:20.340Z,34.64
2023-03-02T17:50:20.362Z,34.61
2023-03-02T17:51:20.376Z,34.56
2023-03-02T17:52:20.397Z,34.58
2023-03-02T17:53:20.407Z,34.58
2023-03-02T17:54:20.445Z,34.53
2023-03-02T17:55:20.451Z,34.59
2023-03-02T17:56:20.462Z,34.56
2023-03-02T17:57:20.511Z,34.56
2023-03-02T17:58:20.493Z,34.56
2023-03-02T17:59:20.573Z,34.53
2023-03-02T18:00:20.603Z,34.53
2023-03-02T18:01:20.560Z,34.53
2023-03-02T18:02:20.588Z,34.54
2023-03-02T18:03:20.702Z,34.54
2023-03-02T18:04:20.681Z,34.50
2023-03-02T18:05:20.631Z,34.48
2023-03-02T18:06:20.690Z,34.47
2023-03-02T18:07:20.660Z,34.48
2023-03-02T18:08:20.669Z,34.43
2023-03-02T18:09:20.688Z,34.49
2023-03-02T18:10:20.714Z,34.47
2023-03-02T18:11:20.736Z,34.43
2023-03-02T18:12:20.761Z,34.45
2023-03-02T18:13:20.776Z,34.45
2023-03-02T18:14:20.789Z,34.42
2023-03-02T18:15:20.809Z,34.36
2023-03-02T18:16:20.837Z,34.38
2023-03-02T18:17:20.836Z,34.36
2023-03-02T18:18:20.837Z,34.36
2023-03-02T18:19:20.858Z,34.37
2023-03-02T18:20:20.881Z,34.36
2023-03-02T18:21:20.893Z,34.34
2023-03-02T18:22:20.921Z,34.33
2023-03-02T18:23:20.958Z,34.33
2023-03-02T18:24:20.990Z,34.30
2023-03-02T18:25:21.017Z,34.29
2023-03-02T18:26:21.048Z,34.30
2023-03-02T18:27:21.141Z,34.32
2023-03-02T18:28:21.115Z,34.27
2023-03-02T18:29:21.148Z,34.27
2023-03-02T18:30:21.177Z,34.27
2023-03-02T18:31:21.250Z,34.26
2023-03-02T18:32:21.304Z,34.26
2023-03-02T18:33:21.283Z,34.24
2023-03-02T18:34:21.312Z,34.26
2023-03-02T18:35:21.352Z,34.24
2023-03-02T18:36:21.381Z,34.25
2023-03-02T18:37:21.413Z,34.20
2023-03-02T18:38:21.443Z,34.20
2023-03-02T18:39:21.479Z,34.21
2023-03-02T18:40:21.504Z,34.14
2023-03-02T18:41:21.542Z,34.18
2023-03-02T18:42:21.564Z,34.19
2023-03-02T18:43:21.605Z,34.17
2023-03-02T18:44:21.641Z,34.16
2023-03-02T18:45:21.702Z,34.17
2023-03-02T18:46:21.754Z,34.14
2023-03-02T18:47:21.739Z,34.13
2023-03-02T18:48:21.780Z,34.13
2023-03-02T18:49:21.827Z,34.16
2023-03-02T18:50:21.842Z,34.14
2023-03-02T18:51:21.904Z,34.13
2023-03-02T18:52:21.912Z,34.10
2023-03-02T18:53:21.963Z,34.05
2023-03-02T18:54:21.984Z,34.09
2023-03-02T18:55:22.033Z,34.05
2023-03-02T18:56:22.059Z,34.05
2023-03-02T18:57:22.090Z,34.06
2023-03-02T18:58:22.152Z,34.08
2023-03-02T18:59:22.159Z,34.05
2023-03-02T19:00:22.212Z,34.05
2023-03-02T19:01:22.359Z,34.03
2023-03-02T19:02:22.361Z,34.01
2023-03-02T19:03:22.291Z,34.03
2023-03-02T19:04:22.334Z,34.01
2023-03-02T19:05:22.367Z,34.04
2023-03-02T19:06:22.415Z,34.00
2023-03-02T19:07:22.456Z,34.00
2023-03-02T19:08:22.482Z,34.02
2023-03-02T19:09:22.528Z,33.96
2023-03-02T19:10:22.565Z,34.00
2023-03-02T19:11:22.601Z,33.94
2023-03-02T19:12:22.638Z,33.92
2023-03-02T19:13:22.677Z,33.94
2023-03-02T19:14:22.726Z,33.95
2023-03-02T19:15:22.761Z,33.91
2023-03-02T19:16:22.861Z,33.89
2023-03-02T19:17:22.836Z,33.88
2023-03-02T19:18:22.877Z,33.88
2023-03-02T19:59:24.486Z,33.52
2023-03-02T20:00:24.526Z,33.48
2023-03-02T20:01:24.616Z,33.46
2023-03-02T20:02:24.668Z,33.46
2023-03-02T20:03:24.650Z,33.46
2023-03-02T20:04:24.719Z,33.48
2023-03-02T20:05:24.742Z,33.42
2023-03-02T20:06:24.930Z,33.44
2023-03-02T20:07:24.835Z,33.44
2023-03-02T20:08:24.904Z,33.41
2023-03-02T20:09:24.918Z,33.42
2023-03-02T20:10:24.973Z,33.38
2023-03-02T20:11:25.036Z,33.39
2023-03-02T20:12:25.069Z,33.42
2023-03-02T20:13:27.168Z,33.38
2023-03-02T20:14:33.837Z,33.32
2023-03-02T20:15:26.167Z,33.36
2023-03-02T20:16:25.234Z,33.35
2023-03-02T20:17:25.188Z,33.32
2023-03-02T20:18:25.218Z,33.28
2023-03-02T20:19:25.231Z,33.29
2023-03-02T20:20:25.249Z,33.27
2023-03-02T20:21:25.267Z,33.27
2023-03-02T20:22:25.277Z,33.24
2023-03-02T20:23:25.303Z,33.27
2023-03-02T20:24:25.345Z,33.22
2023-03-02T20:25:25.328Z,33.22
2023-03-02T20:26:25.351Z,33.25
2023-03-02T20:27:25.367Z,33.21
2023-03-02T20:28:25.383Z,33.18
2023-03-02T20:29:25.390Z,33.24
2023-03-02T20:30:25.405Z,33.19
2023-03-02T20:31:25.431Z,33.14
2023-03-02T20:32:25.471Z,33.14
2023-03-02T20:33:25.472Z,33.17
2023-03-02T20:34:25.476Z,33.16
2023-03-02T20:35:25.503Z,33.14
2023-03-02T20:36:25.524Z,33.16
2023-03-02T20:37:25.542Z,33.11
2023-03-02T20:38:28.102Z,33.14
2023-03-02T20:39:25.579Z,33.10
2023-03-02T20:40:25.599Z,33.07
2023-03-02T20:41:25.619Z,33.08
2023-03-02T20:42:25.635Z,33.10
2023-03-02T20:43:25.650Z,33.06
2023-03-02T20:44:25.665Z,33.08
2023-03-02T21:56:27.715Z,32.41
2023-03-02T21:57:27.756Z,32.41
2023-03-02T21:58:27.813Z,32.40
2023-03-02T21:59:27.859Z,32.38
2023-03-02T22:00:27.900Z,32.36
2023-03-02T22:01:27.955Z,32.39
2023-03-02T22:02:28.011Z,32.37
2023-03-02T22:03:28.064Z,32.35
2023-03-02T22:04:28.100Z,32.30
2023-03-02T22:05:28.156Z,32.29
2023-03-02T22:06:28.192Z,32.34
2023-03-02T22:07:28.244Z,32.29
2023-03-02T22:08:28.294Z,32.33
2023-03-02T22:09:28.357Z,32.36
2023-03-02T22:10:28.405Z,32.29
2023-03-02T22:11:28.456Z,32.32
2023-03-02T22:12:28.508Z,32.28
2023-03-02T22:13:28.555Z,32.24
2023-03-02T22:14:28.599Z,32.27
2023-03-02T22:15:28.670Z,32.30
2023-03-02T22:16:28.806Z,32.23
2023-03-02T22:17:28.756Z,32.24
2023-03-02T22:18:28.812Z,32.23
2023-03-02T22:19:28.864Z,32.23
2023-03-02T22:20:28.900Z,32.23
2023-03-02T22:21:28.976Z,32.20
2023-03-02T22:22:29.009Z,32.20
2023-03-02T22:23:29.064Z,32.23
2023-03-02T22:24:29.133Z,32.21
2023-03-02T22:25:29.162Z,32.17
2023-03-02T22:26:29.216Z,32.19
2023-03-02T22:27:29.254Z,32.14
2023-03-02T22:28:29.317Z,32.12
2023-03-02T22:29:29.385Z,32.09
2023-03-02T22:30:29.422Z,32.14
2023-03-02T22:31:29.594Z,32.16
2023-03-02T22:32:29.587Z,32.14
2023-03-02T22:33:29.595Z,32.10
2023-03-02T22:34:29.671Z,32.12
2023-03-02T22:35:29.802Z,32.12
2023-03-02T22:36:29.759Z,32.15
2023-03-02T22:37:29.817Z,32.10
2023-03-02T22:38:29.863Z,32.09
2023-03-02T22:39:29.913Z,32.08
2023-03-02T22:40:29.969Z,32.03
2023-03-02T22:41:30.036Z,32.02
2023-03-02T22:42:30.076Z,32.08
2023-03-02T22:43:30.124Z,32.09
2023-03-02T22:44:30.172Z,32.08
2023-03-02T22:45:30.240Z,32.02
2023-03-02T22:46:30.316Z,32.05
2023-03-02T22:47:30.336Z,32.01
2023-03-02T22:48:30.379Z,32.03
2023-03-02T22:49:30.436Z,32.05
2023-03-02T22:50:30.491Z,32.08
2023-03-02T22:51:30.538Z,32.01
2023-03-02T22:52:30.589Z,32.06
2023-03-02T22:53:30.645Z,31.99
2023-03-02T23:06:31.323Z,31.83
2023-03-02T23:07:31.380Z,31.84
2023-03-02T23:08:31.428Z,31.87
2023-03-02T23:09:31.489Z,31.81
2023-03-02T23:10:31.553Z,31.87
